sensor_id;sensor_type;location;lat;lon;timestamp;pressure;altitude;pressure_sealevel;temperature;humidity
54503;BME280;40411;50.090;21.954;2023-06-10T00:01:48;-19564.38;;;16.02;100.00
54503;BME280;40411;50.090;21.954;2023-06-10T00:04:14;-19561.84;;;15.92;100.00
54503;BME280;40411;50.090;21.954;2023-06-10T00:06:43;-19559.94;;;15.84;100.00
54503;BME280;40411;50.090;21.954;2023-06-10T00:09:10;-19567.53;;;16.15;100.00
54503;BME280;40411;50.090;21.954;2023-06-10T00:11:39;-19568.06;;;16.17;100.00
54503;BME280;40411;50.090;21.954;2023-06-10T00:14:06;-19564.00;;;16.00;100.00
54503;BME280;40411;50.090;21.954;2023-06-10T00:16:32;-19561.19;;;15.89;100.00
54503;BME280;40411;50.090;21.954;2023-06-10T00:19:03;-19559.16;;;15.81;100.00
54503;BME280;40411;50.090;21.954;2023-06-10T00:21:31;-19557.13;;;15.73;100.00
54503;BME280;40411;50.090;21.954;2023-06-10T00:24:04;-19556.50;;;15.70;100.00
54503;BME280;40411;50.090;21.954;2023-06-10T00:26:31;-19555.22;;;15.65;100.00
54503;BME280;40411;50.090;21.954;2023-06-10T00:28:57;-19555.59;;;15.67;100.00
54503;BME280;40411;50.090;21.954;2023-06-10T00:31:23;-19552.81;;;15.55;100.00
54503;BME280;40411;50.090;21.954;2023-06-10T00:33:49;-19550.66;;;15.47;100.00
54503;BME280;40411;50.090;21.954;2023-06-10T00:36:15;-19549.25;;;15.41;100.00
54503;BME280;40411;50.090;21.954;2023-06-10T00:38:41;-19551.28;;;15.49;100.00
54503;BME280;40411;50.090;21.954;2023-06-10T00:41:08;-19553.44;;;15.58;100.00
54503;BME280;40411;50.090;21.954;2023-06-10T00:43:34;-19552.69;;;15.55;100.00
54503;BME280;40411;50.090;21.954;2023-06-10T00:46:00;-19552.31;;;15.53;100.00
54503;BME280;40411;50.090;21.954;2023-06-10T00:48:29;-19553.44;;;15.58;100.00
54503;BME280;40411;50.090;21.954;2023-06-10T00:50:56;-19552.94;;;15.56;100.00
54503;BME280;40411;50.090;21.954;2023-06-10T00:53:22;-19552.56;;;15.54;100.00
54503;BME280;40411;50.090;21.954;2023-06-10T00:55:48;-19551.28;;;15.49;100.00
54503;BME280;40411;50.090;21.954;2023-06-10T00:58:15;-19552.31;;;15.53;100.00
54503;BME280;40411;50.090;21.954;2023-06-10T01:00:41;-19552.31;;;15.53;100.00
54503;BME280;40411;50.090;21.954;2023-06-10T01:03:07;-19551.28;;;15.49;100.00
54503;BME280;40411;50.090;21.954;2023-06-10T01:05:36;-19552.16;;;15.53;100.00
54503;BME280;40411;50.090;21.954;2023-06-10T01:10:38;-19551.53;;;15.50;100.00
54503;BME280;40411;50.090;21.954;2023-06-10T01:13:08;-19550.53;;;15.46;100.00
54503;BME280;40411;50.090;21.954;2023-06-10T01:15:38;-19551.53;;;15.50;100.00
54503;BME280;40411;50.090;21.954;2023-06-10T01:18:07;-19551.53;;;15.50;100.00
54503;BME280;40411;50.090;21.954;2023-06-10T01:20:41;-19551.53;;;15.50;100.00
54503;BME280;40411;50.090;21.954;2023-06-10T01:23:10;-19552.81;;;15.55;100.00
54503;BME280;40411;50.090;21.954;2023-06-10T01:25:41;-19552.44;;;15.54;100.00
54503;BME280;40411;50.090;21.954;2023-06-10T01:33:36;-19551.16;;;15.49;100.00
54503;BME280;40411;50.090;21.954;2023-06-10T01:36:03;-19550.91;;;15.48;100.00
54503;BME280;40411;50.090;21.954;2023-06-10T01:38:33;-19552.31;;;15.53;100.00
54503;BME280;40411;50.090;21.954;2023-06-10T01:41:01;-19552.81;;;15.55;100.00
54503;BME280;40411;50.090;21.954;2023-06-10T01:43:27;-19552.16;;;15.53;100.00
54503;BME280;40411;50.090;21.954;2023-06-10T01:45:53;-19552.03;;;15.52;100.00
54503;BME280;40411;50.090;21.954;2023-06-10T01:48:19;-19552.31;;;15.53;100.00
54503;BME280;40411;50.090;21.954;2023-06-10T01:50:44;-19551.28;;;15.49;100.00
54503;BME280;40411;50.090;21.954;2023-06-10T01:53:10;-19551.03;;;15.48;100.00
54503;BME280;40411;50.090;21.954;2023-06-10T01:55:36;-19551.91;;;15.52;100.00
54503;BME280;40411;50.090;21.954;2023-06-10T01:58:02;-19552.69;;;15.55;100.00
54503;BME280;40411;50.090;21.954;2023-06-10T02:00:28;-19551.91;;;15.52;100.00
54503;BME280;40411;50.090;21.954;2023-06-10T02:02:54;-19550.41;;;15.46;100.00
54503;BME280;40411;50.090;21.954;2023-06-10T02:05:20;-19549.13;;;15.40;100.00
54503;BME280;40411;50.090;21.954;2023-06-10T02:07:46;-19549.00;;;15.40;100.00
54503;BME280;40411;50.090;21.954;2023-06-10T02:10:11;-19549.00;;;15.40;100.00
54503;BME280;40411;50.090;21.954;2023-06-10T02:12:37;-19549.13;;;15.40;100.00
54503;BME280;40411;50.090;21.954;2023-06-10T02:15:03;-19548.09;;;15.36;100.00
54503;BME280;40411;50.090;21.954;2023-06-10T02:17:29;-19547.72;;;15.35;100.00
54503;BME280;40411;50.090;21.954;2023-06-10T02:19:55;-19546.72;;;15.31;100.00
54503;BME280;40411;50.090;21.954;2023-06-10T02:22:23;-19546.72;;;15.31;100.00
54503;BME280;40411;50.090;21.954;2023-06-10T02:24:49;-19545.31;;;15.25;100.00
54503;BME280;40411;50.090;21.954;2023-06-10T02:27:16;-19544.69;;;15.23;100.00
54503;BME280;40411;50.090;21.954;2023-06-10T02:29:42;-19545.44;;;15.26;100.00
54503;BME280;40411;50.090;21.954;2023-06-10T02:32:10;-19544.69;;;15.23;100.00
54503;BME280;40411;50.090;21.954;2023-06-10T02:34:36;-19544.81;;;15.23;100.00
54503;BME280;40411;50.090;21.954;2023-06-10T02:37:03;-19544.81;;;15.23;100.00
54503;BME280;40411;50.090;21.954;2023-06-10T02:39:29;-19544.41;;;15.22;100.00
54503;BME280;40411;50.090;21.954;2023-06-10T02:41:56;-19545.31;;;15.25;100.00
54503;BME280;40411;50.090;21.954;2023-06-10T02:44:22;-19545.94;;;15.28;100.00
54503;BME280;40411;50.090;21.954;2023-06-10T02:46:48;-19544.81;;;15.23;100.00
54503;BME280;40411;50.090;21.954;2023-06-10T02:49:14;-19544.81;;;15.23;100.00
54503;BME280;40411;50.090;21.954;2023-06-10T02:51:40;-19544.81;;;15.23;100.00
54503;BME280;40411;50.090;21.954;2023-06-10T02:54:07;-19544.81;;;15.23;100.00
54503;BME280;40411;50.090;21.954;2023-06-10T02:56:34;-19544.56;;;15.22;100.00
54503;BME280;40411;50.090;21.954;2023-06-10T02:59:02;-19545.81;;;15.27;100.00
54503;BME280;40411;50.090;21.954;2023-06-10T03:01:30;-19546.72;;;15.31;100.00
54503;BME280;40411;50.090;21.954;2023-06-10T03:04:07;-19548.63;;;15.38;100.00
54503;BME280;40411;50.090;21.954;2023-06-10T03:06:34;-19549.50;;;15.42;100.00
54503;BME280;40411;50.090;21.954;2023-06-10T03:09:12;-19549.13;;;15.40;100.00
54503;BME280;40411;50.090;21.954;2023-06-10T03:11:41;-19549.13;;;15.40;100.00
54503;BME280;40411;50.090;21.954;2023-06-10T03:14:07;-19550.00;;;15.44;100.00
54503;BME280;40411;50.090;21.954;2023-06-10T03:16:33;-19550.66;;;15.47;100.00
54503;BME280;40411;50.090;21.954;2023-06-10T03:19:00;-19552.16;;;15.53;100.00
54503;BME280;40411;50.090;21.954;2023-06-10T03:21:26;-19553.06;;;15.56;100.00
54503;BME280;40411;50.090;21.954;2023-06-10T03:23:55;-19555.34;;;15.65;100.00
54503;BME280;40411;50.090;21.954;2023-06-10T03:26:21;-19554.34;;;15.61;100.00
54503;BME280;40411;50.090;21.954;2023-06-10T03:28:47;-19557.63;;;15.75;100.00
54503;BME280;40411;50.090;21.954;2023-06-10T03:31:14;-19558.28;;;15.77;100.00
54503;BME280;40411;50.090;21.954;2023-06-10T03:33:42;-19559.94;;;15.84;100.00
54503;BME280;40411;50.090;21.954;2023-06-10T03:36:08;-19562.09;;;15.93;100.00
54503;BME280;40411;50.090;21.954;2023-06-10T03:38:35;-19564.00;;;16.00;100.00
54503;BME280;40411;50.090;21.954;2023-06-10T03:41:03;-19566.03;;;16.08;100.00
54503;BME280;40411;50.090;21.954;2023-06-10T03:43:29;-19568.81;;;16.20;100.00
54503;BME280;40411;50.090;21.954;2023-06-10T03:45:57;-19571.22;;;16.29;100.00
54503;BME280;40411;50.090;21.954;2023-06-10T03:48:23;-19573.75;;;16.40;100.00
54503;BME280;40411;50.090;21.954;2023-06-10T03:50:51;-19573.38;;;16.38;100.00
54503;BME280;40411;50.090;21.954;2023-06-10T03:53:19;-19576.81;;;16.52;100.00
54503;BME280;40411;50.090;21.954;2023-06-10T03:55:46;-19579.59;;;16.63;100.00
54503;BME280;40411;50.090;21.954;2023-06-10T03:58:13;-19585.06;;;16.85;100.00
54503;BME280;40411;50.090;21.954;2023-06-10T04:00:41;-19589.38;;;17.03;100.00
54503;BME280;40411;50.090;21.954;2023-06-10T04:03:08;-19593.66;;;17.20;100.00
54503;BME280;40411;50.090;21.954;2023-06-10T04:05:39;-19599.38;;;17.43;100.00
54503;BME280;40411;50.090;21.954;2023-06-10T04:08:04;-19600.88;;;17.49;100.00
54503;BME280;40411;50.090;21.954;2023-06-10T04:10:31;-19609.88;;;17.85;100.00
54503;BME280;40411;50.090;21.954;2023-06-10T04:12:56;-19610.53;;;17.88;100.00
54503;BME280;40411;50.090;21.954;2023-06-10T04:15:25;-19618.50;;;18.20;100.00
54503;BME280;40411;50.090;21.954;2023-06-10T04:17:51;-19619.50;;;18.24;100.00
54503;BME280;40411;50.090;21.954;2023-06-10T04:20:21;-19620.78;;;18.29;100.00
54503;BME280;40411;50.090;21.954;2023-06-10T04:22:48;-19619.13;;;18.23;100.00
54503;BME280;40411;50.090;21.954;2023-06-10T04:25:15;-19623.44;;;18.40;100.00
54503;BME280;40411;50.090;21.954;2023-06-10T04:27:43;-19631.41;;;18.72;100.00
54503;BME280;40411;50.090;21.954;2023-06-10T04:30:10;-19633.16;;;18.80;100.00
54503;BME280;40411;50.090;21.954;2023-06-10T04:32:37;-19635.44;;;18.89;100.00
54503;BME280;40411;50.090;21.954;2023-06-10T04:35:07;-19630.75;;;18.70;100.00
54503;BME280;40411;50.090;21.954;2023-06-10T04:37:33;-19637.84;;;18.98;100.00
54503;BME280;40411;50.090;21.954;2023-06-10T04:39:59;-19635.19;;;18.88;100.00
54503;BME280;40411;50.090;21.954;2023-06-10T04:42:26;-19635.19;;;18.88;100.00
54503;BME280;40411;50.090;21.954;2023-06-10T04:44:53;-19630.63;;;18.69;100.00
54503;BME280;40411;50.090;21.954;2023-06-10T04:47:19;-19636.72;;;18.94;100.00
54503;BME280;40411;50.090;21.954;2023-06-10T04:49:45;-19632.16;;;18.75;100.00
54503;BME280;40411;50.090;21.954;2023-06-10T04:52:11;-19629.63;;;18.65;100.00
54503;BME280;40411;50.090;21.954;2023-06-10T04:54:40;-19626.72;;;18.53;100.00
54503;BME280;40411;50.090;21.954;2023-06-10T04:57:06;-19630.38;;;18.68;100.00
54503;BME280;40411;50.090;21.954;2023-06-10T04:59:33;-19628.88;;;18.62;100.00
54503;BME280;40411;50.090;21.954;2023-06-10T05:02:04;-19627.84;;;18.58;100.00
54503;BME280;40411;50.090;21.954;2023-06-10T05:04:30;-19619.88;;;18.26;100.00
54503;BME280;40411;50.090;21.954;2023-06-10T05:06:56;-19623.31;;;18.40;100.00
54503;BME280;40411;50.090;21.954;2023-06-10T05:09:22;-19625.31;;;18.48;100.00
54503;BME280;40411;50.090;21.954;2023-06-10T05:11:48;-19622.53;;;18.37;100.00
54503;BME280;40411;50.090;21.954;2023-06-10T05:14:14;-19620.25;;;18.27;100.00
54503;BME280;40411;50.090;21.954;2023-06-10T05:16:41;-19620.41;;;18.28;100.00
54503;BME280;40411;50.090;21.954;2023-06-10T05:19:08;-19619.13;;;18.23;100.00
54503;BME280;40411;50.090;21.954;2023-06-10T05:21:34;-19620.13;;;18.27;100.00
54503;BME280;40411;50.090;21.954;2023-06-10T05:24:00;-19622.28;;;18.36;100.00
54503;BME280;40411;50.090;21.954;2023-06-10T05:26:26;-19623.19;;;18.39;100.00
54503;BME280;40411;50.090;21.954;2023-06-10T05:28:52;-19623.44;;;18.40;100.00
54503;BME280;40411;50.090;21.954;2023-06-10T05:31:18;-19622.16;;;18.35;100.00
54503;BME280;40411;50.090;21.954;2023-06-10T05:33:44;-19625.06;;;18.47;100.00
54503;BME280;40411;50.090;21.954;2023-06-10T05:36:10;-19624.56;;;18.45;100.00
54503;BME280;40411;50.090;21.954;2023-06-10T05:38:36;-19622.78;;;18.38;100.00
54503;BME280;40411;50.090;21.954;2023-06-10T05:41:02;-19624.56;;;18.45;100.00
54503;BME280;40411;50.090;21.954;2023-06-10T05:43:28;-19626.84;;;18.54;100.00
54503;BME280;40411;50.090;21.954;2023-06-10T05:45:53;-19628.75;;;18.62;100.00
54503;BME280;40411;50.090;21.954;2023-06-10T05:48:19;-19631.66;;;18.73;100.00
54503;BME280;40411;50.090;21.954;2023-06-10T05:50:45;-19631.91;;;18.74;100.00
54503;BME280;40411;50.090;21.954;2023-06-10T05:53:16;-19641.00;;;19.11;100.00
54503;BME280;40411;50.090;21.954;2023-06-10T05:55:44;-19638.97;;;19.03;100.00
54503;BME280;40411;50.090;21.954;2023-06-10T05:58:11;-19640.00;;;19.07;100.00
54503;BME280;40411;50.090;21.954;2023-06-10T06:00:40;-19645.03;;;19.28;100.00
54503;BME280;40411;50.090;21.954;2023-06-10T06:03:07;-19650.09;;;19.48;100.00
54503;BME280;40411;50.090;21.954;2023-06-10T06:05:36;-19658.44;;;19.82;100.00
54503;BME280;40411;50.090;21.954;2023-06-10T06:08:05;-19670.03;;;20.29;100.00
54503;BME280;40411;50.090;21.954;2023-06-10T06:10:31;-19669.03;;;20.25;100.00
54503;BME280;40411;50.090;21.954;2023-06-10T06:12:57;-19680.38;;;20.71;100.00
54503;BME280;40411;50.090;21.954;2023-06-10T06:15:23;-19679.88;;;20.69;100.00
54503;BME280;40411;50.090;21.954;2023-06-10T06:17:49;-19699.66;;;21.49;100.00
54503;BME280;40411;50.090;21.954;2023-06-10T06:20:19;-19695.50;;;21.32;100.00
54503;BME280;40411;50.090;21.954;2023-06-10T06:22:45;-19680.38;;;20.71;100.00
54503;BME280;40411;50.090;21.954;2023-06-10T06:25:11;-19678.38;;;20.63;100.00
54503;BME280;40411;50.090;21.954;2023-06-10T06:27:37;-19679.13;;;20.66;100.00
54503;BME280;40411;50.090;21.954;2023-06-10T06:30:02;-19696.50;;;21.36;100.00
54503;BME280;40411;50.090;21.954;2023-06-10T06:32:29;-19698.03;;;21.42;100.00
54503;BME280;40411;50.090;21.954;2023-06-10T06:34:54;-19695.50;;;21.32;100.00
54503;BME280;40411;50.090;21.954;2023-06-10T06:37:22;-19692.22;;;21.19;100.00
54503;BME280;40411;50.090;21.954;2023-06-10T06:39:53;-19681.38;;;20.75;100.00
54503;BME280;40411;50.090;21.954;2023-06-10T06:42:20;-19704.56;;;21.69;100.00
54503;BME280;40411;50.090;21.954;2023-06-10T06:45:06;-19732.72;;;22.84;100.00
54503;BME280;40411;50.090;21.954;2023-06-10T06:47:32;-19745.91;;;23.37;100.00
54503;BME280;40411;50.090;21.954;2023-06-10T06:49:58;-19742.03;;;23.22;100.00
54503;BME280;40411;50.090;21.954;2023-06-10T06:52:24;-19727.97;;;22.64;100.00
54503;BME280;40411;50.090;21.954;2023-06-10T06:54:50;-19753.81;;;23.70;100.00
54503;BME280;40411;50.090;21.954;2023-06-10T06:57:16;-19755.31;;;23.76;100.00
54503;BME280;40411;50.090;21.954;2023-06-10T06:59:41;-19742.16;;;23.22;100.00
54503;BME280;40411;50.090;21.954;2023-06-10T07:02:07;-19768.38;;;24.29;100.00
54503;BME280;40411;50.090;21.954;2023-06-10T07:04:33;-19764.22;;;24.12;100.00
54503;BME280;40411;50.090;21.954;2023-06-10T07:06:59;-19720.41;;;22.34;100.00
54503;BME280;40411;50.090;21.954;2023-06-10T07:09:25;-19730.09;;;22.73;100.00
54503;BME280;40411;50.090;21.954;2023-06-10T07:11:51;-19726.69;;;22.59;100.00
54503;BME280;40411;50.090;21.954;2023-06-10T07:14:16;-19706.06;;;21.75;100.00
54503;BME280;40411;50.090;21.954;2023-06-10T07:16:42;-19710.34;;;21.93;100.00
54503;BME280;40411;50.090;21.954;2023-06-10T07:19:10;-19720.16;;;22.33;100.00
54503;BME280;40411;50.090;21.954;2023-06-10T07:21:36;-19713.63;;;22.06;100.00
54503;BME280;40411;50.090;21.954;2023-06-10T07:24:03;-19714.63;;;22.10;100.00
54503;BME280;40411;50.090;21.954;2023-06-10T07:26:29;-19733.47;;;22.87;100.00
54503;BME280;40411;50.090;21.954;2023-06-10T07:28:55;-19732.59;;;22.83;100.00
54503;BME280;40411;50.090;21.954;2023-06-10T07:31:21;-19744.78;;;23.33;100.00
54503;BME280;40411;50.090;21.954;2023-06-10T07:33:47;-19731.22;;;22.78;100.00
54503;BME280;40411;50.090;21.954;2023-06-10T07:36:13;-19745.78;;;23.37;100.00
54503;BME280;40411;50.090;21.954;2023-06-10T07:38:38;-19744.03;;;23.30;100.00
54503;BME280;40411;50.090;21.954;2023-06-10T07:41:04;-19745.28;;;23.35;100.00
54503;BME280;40411;50.090;21.954;2023-06-10T07:43:30;-19728.84;;;22.68;100.00
54503;BME280;40411;50.090;21.954;2023-06-10T07:45:56;-19738.75;;;23.08;100.00
54503;BME280;40411;50.090;21.954;2023-06-10T07:48:22;-19743.03;;;23.26;100.00
54503;BME280;40411;50.090;21.954;2023-06-10T07:50:48;-19748.81;;;23.49;100.00
54503;BME280;40411;50.090;21.954;2023-06-10T07:53:13;-19738.13;;;23.06;100.00
54503;BME280;40411;50.090;21.954;2023-06-10T07:55:39;-19727.72;;;22.63;100.00
54503;BME280;40411;50.090;21.954;2023-06-10T07:58:05;-19736.25;;;22.98;100.00
54503;BME280;40411;50.090;21.954;2023-06-10T08:00:31;-19741.78;;;23.20;100.00
54503;BME280;40411;50.090;21.954;2023-06-10T08:02:57;-19721.81;;;22.39;100.00
54503;BME280;40411;50.090;21.954;2023-06-10T08:05:23;-19728.72;;;22.67;100.00
54503;BME280;40411;50.090;21.954;2023-06-10T08:07:48;-19743.78;;;23.29;100.00
54503;BME280;40411;50.090;21.954;2023-06-10T08:10:14;-19762.59;;;24.05;100.00
54503;BME280;40411;50.090;21.954;2023-06-10T08:12:40;-19757.97;;;23.86;97.78
54503;BME280;40411;50.090;21.954;2023-06-10T08:15:07;-19745.03;;;23.34;100.00
54503;BME280;40411;50.090;21.954;2023-06-10T08:17:32;-19742.78;;;23.25;100.00
54503;BME280;40411;50.090;21.954;2023-06-10T08:19:58;-19756.22;;;23.79;99.04
54503;BME280;40411;50.090;21.954;2023-06-10T08:22:24;-19765.47;;;24.17;98.87
54503;BME280;40411;50.090;21.954;2023-06-10T08:24:50;-19733.47;;;22.87;98.18
54503;BME280;40411;50.090;21.954;2023-06-10T08:27:16;-19737.50;;;23.03;100.00
54503;BME280;40411;50.090;21.954;2023-06-10T08:29:42;-19765.22;;;24.16;98.73
54503;BME280;40411;50.090;21.954;2023-06-10T08:32:07;-19772.38;;;24.45;98.40
54503;BME280;40411;50.090;21.954;2023-06-10T08:34:34;-19785.66;;;25.00;92.67
54503;BME280;40411;50.090;21.954;2023-06-10T08:37:01;-19799.41;;;25.56;88.56
54503;BME280;40411;50.090;21.954;2023-06-10T08:39:27;-19778.38;;;24.70;90.62
54503;BME280;40411;50.090;21.954;2023-06-10T08:44:31;-19768.63;;;24.30;92.44
54503;BME280;40411;50.090;21.954;2023-06-10T08:46:59;-19785.66;;;25.00;95.26
54503;BME280;40411;50.090;21.954;2023-06-10T08:49:28;-19760.59;;;23.97;92.44
54503;BME280;40411;50.090;21.954;2023-06-10T08:51:58;-19751.69;;;23.61;97.18
54503;BME280;40411;50.090;21.954;2023-06-10T08:54:27;-19741.66;;;23.20;99.47
54503;BME280;40411;50.090;21.954;2023-06-10T08:56:55;-19761.72;;;24.02;97.27
54503;BME280;40411;50.090;21.954;2023-06-10T08:59:21;-19751.31;;;23.59;100.00
54503;BME280;40411;50.090;21.954;2023-06-10T09:01:47;-19769.88;;;24.35;97.49
54503;BME280;40411;50.090;21.954;2023-06-10T09:04:13;-19767.75;;;24.26;96.08
54503;BME280;40411;50.090;21.954;2023-06-10T09:06:40;-19777.25;;;24.65;91.71
54503;BME280;40411;50.090;21.954;2023-06-10T09:09:09;-19778.63;;;24.71;95.55
54503;BME280;40411;50.090;21.954;2023-06-10T09:11:36;-19748.69;;;23.49;95.92
54503;BME280;40411;50.090;21.954;2023-06-10T09:14:03;-19755.06;;;23.75;97.51
54503;BME280;40411;50.090;21.954;2023-06-10T09:16:29;-19755.31;;;23.76;100.00
54503;BME280;40411;50.090;21.954;2023-06-10T09:18:55;-19760.59;;;23.97;98.28
54503;BME280;40411;50.090;21.954;2023-06-10T09:21:25;-19745.28;;;23.35;99.61
54503;BME280;40411;50.090;21.954;2023-06-10T09:23:51;-19740.53;;;23.15;100.00
54503;BME280;40411;50.090;21.954;2023-06-10T09:26:18;-19741.16;;;23.18;100.00
54503;BME280;40411;50.090;21.954;2023-06-10T09:28:50;-19752.06;;;23.62;100.00
54503;BME280;40411;50.090;21.954;2023-06-10T09:31:16;-19751.19;;;23.59;100.00
54503;BME280;40411;50.090;21.954;2023-06-10T09:33:47;-19743.03;;;23.26;100.00
54503;BME280;40411;50.090;21.954;2023-06-10T09:36:21;-19746.78;;;23.41;98.78
54503;BME280;40411;50.090;21.954;2023-06-10T09:38:49;-19743.16;;;23.26;100.00
54503;BME280;40411;50.090;21.954;2023-06-10T09:41:20;-19756.34;;;23.80;100.00
54503;BME280;40411;50.090;21.954;2023-06-10T09:44:21;-19740.41;;;23.15;100.00
54503;BME280;40411;50.090;21.954;2023-06-10T09:46:50;-19744.28;;;23.31;100.00
54503;BME280;40411;50.090;21.954;2023-06-10T09:49:20;-19745.91;;;23.37;100.00
54503;BME280;40411;50.090;21.954;2023-06-10T09:51:52;-19755.59;;;23.77;100.00
54503;BME280;40411;50.090;21.954;2023-06-10T09:54:20;-19751.19;;;23.59;97.38
54503;BME280;40411;50.090;21.954;2023-06-10T09:56:47;-19764.59;;;24.14;100.00
54503;BME280;40411;50.090;21.954;2023-06-10T09:59:13;-19795.66;;;25.40;92.79
54503;BME280;40411;50.090;21.954;2023-06-10T10:01:39;-19787.78;;;25.08;96.50
54503;BME280;40411;50.090;21.954;2023-06-10T10:04:06;-19780.91;;;24.80;88.54
54503;BME280;40411;50.090;21.954;2023-06-10T10:06:31;-19808.41;;;25.93;93.24
54503;BME280;40411;50.090;21.954;2023-06-10T10:08:57;-19821.41;;;26.46;84.50
54503;BME280;40411;50.090;21.954;2023-06-10T10:11:24;-19780.16;;;24.77;94.90
54503;BME280;40411;50.090;21.954;2023-06-10T10:13:52;-19793.53;;;25.32;90.83
54503;BME280;40411;50.090;21.954;2023-06-10T10:16:28;-19808.16;;;25.92;88.96
54503;BME280;40411;50.090;21.954;2023-06-10T10:18:59;-19782.41;;;24.86;94.12
54503;BME280;40411;50.090;21.954;2023-06-10T10:21:29;-19790.91;;;25.21;95.83
54503;BME280;40411;50.090;21.954;2023-06-10T10:24:05;-19795.91;;;25.41;89.88
54503;BME280;40411;50.090;21.954;2023-06-10T10:26:35;-19801.41;;;25.64;92.76
54503;BME280;40411;50.090;21.954;2023-06-10T10:29:31;-19811.41;;;26.05;89.81
54503;BME280;40411;50.090;21.954;2023-06-10T10:31:56;-19789.91;;;25.17;92.30
54503;BME280;40411;50.090;21.954;2023-06-10T10:34:57;-19790.41;;;25.19;91.79
54503;BME280;40411;50.090;21.954;2023-06-10T10:37:26;-19785.66;;;25.00;92.44
54503;BME280;40411;50.090;21.954;2023-06-10T10:39:52;-19765.59;;;24.18;92.28
54503;BME280;40411;50.090;21.954;2023-06-10T10:42:18;-19757.47;;;23.84;99.37
54503;BME280;40411;50.090;21.954;2023-06-10T10:44:46;-19759.22;;;23.92;97.44
54503;BME280;40411;50.090;21.954;2023-06-10T10:47:13;-19755.19;;;23.75;100.00
54503;BME280;40411;50.090;21.954;2023-06-10T10:49:43;-19767.88;;;24.27;99.43
54503;BME280;40411;50.090;21.954;2023-06-10T10:52:11;-19768.63;;;24.30;92.72
54503;BME280;40411;50.090;21.954;2023-06-10T10:54:43;-19774.63;;;24.55;93.35
54503;BME280;40411;50.090;21.954;2023-06-10T10:59:51;-19760.22;;;23.96;93.62
54503;BME280;40411;50.090;21.954;2023-06-10T11:02:35;-19771.75;;;24.43;93.60
54503;BME280;40411;50.090;21.954;2023-06-10T11:05:05;-19761.84;;;24.02;94.22
54503;BME280;40411;50.090;21.954;2023-06-10T11:12:53;-19794.91;;;25.37;91.82
54503;BME280;40411;50.090;21.954;2023-06-10T11:18:20;-19817.41;;;26.29;81.34
54503;BME280;40411;50.090;21.954;2023-06-10T11:33:47;-19770.50;;;24.38;94.51
54503;BME280;40411;50.090;21.954;2023-06-10T11:36:14;-19784.28;;;24.94;100.00
54503;BME280;40411;50.090;21.954;2023-06-10T11:38:40;-19782.28;;;24.86;93.14
54503;BME280;40411;50.090;21.954;2023-06-10T11:41:06;-19792.41;;;25.27;87.82
54503;BME280;40411;50.090;21.954;2023-06-10T11:43:33;-19789.91;;;25.17;88.43
54503;BME280;40411;50.090;21.954;2023-06-10T11:46:00;-19772.00;;;24.44;90.98
54503;BME280;40411;50.090;21.954;2023-06-10T11:48:26;-19760.59;;;23.97;91.81
54503;BME280;40411;50.090;21.954;2023-06-10T11:50:56;-19767.63;;;24.26;91.03
54503;BME280;40411;50.090;21.954;2023-06-10T11:53:21;-19772.88;;;24.47;90.39
54503;BME280;40411;50.090;21.954;2023-06-10T11:55:50;-19788.53;;;25.11;89.17
54503;BME280;40411;50.090;21.954;2023-06-10T11:58:17;-19764.97;;;24.15;88.84
54503;BME280;40411;50.090;21.954;2023-06-10T12:00:47;-19733.22;;;22.86;97.23
54503;BME280;40411;50.090;21.954;2023-06-10T12:03:13;-19743.91;;;23.29;100.00
54503;BME280;40411;50.090;21.954;2023-06-10T12:05:40;-19737.75;;;23.04;100.00
54503;BME280;40411;50.090;21.954;2023-06-10T12:08:18;-19733.63;;;22.87;100.00
54503;BME280;40411;50.090;21.954;2023-06-10T12:10:44;-19720.41;;;22.34;100.00
54503;BME280;40411;50.090;21.954;2023-06-10T12:13:10;-19735.00;;;22.93;100.00
54503;BME280;40411;50.090;21.954;2023-06-10T12:15:37;-19743.78;;;23.29;99.04
54503;BME280;40411;50.090;21.954;2023-06-10T12:18:03;-19725.44;;;22.54;100.00
54503;BME280;40411;50.090;21.954;2023-06-10T12:20:31;-19742.03;;;23.22;100.00
54503;BME280;40411;50.090;21.954;2023-06-10T12:22:59;-19756.34;;;23.80;97.61
54503;BME280;40411;50.090;21.954;2023-06-10T12:25:27;-19747.31;;;23.43;94.57
54503;BME280;40411;50.090;21.954;2023-06-10T12:27:55;-19738.25;;;23.06;95.31
54503;BME280;40411;50.090;21.954;2023-06-10T12:30:23;-19722.81;;;22.43;98.74
54503;BME280;40411;50.090;21.954;2023-06-10T12:32:50;-19736.38;;;22.99;97.41
54503;BME280;40411;50.090;21.954;2023-06-10T12:35:18;-19735.75;;;22.96;100.00
54503;BME280;40411;50.090;21.954;2023-06-10T12:40:31;-19754.84;;;23.74;93.70
54503;BME280;40411;50.090;21.954;2023-06-10T12:42:58;-19755.06;;;23.75;96.05
54503;BME280;40411;50.090;21.954;2023-06-10T12:45:33;-19734.75;;;22.92;100.00
54503;BME280;40411;50.090;21.954;2023-06-10T12:48:31;-19730.97;;;22.77;99.94
54503;BME280;40411;50.090;21.954;2023-06-10T12:50:58;-19733.88;;;22.88;100.00
54503;BME280;40411;50.090;21.954;2023-06-10T12:53:24;-19720.28;;;22.33;100.00
54503;BME280;40411;50.090;21.954;2023-06-10T12:55:52;-19727.47;;;22.62;100.00
54503;BME280;40411;50.090;21.954;2023-06-10T12:58:21;-19718.03;;;22.24;100.00
54503;BME280;40411;50.090;21.954;2023-06-10T13:00:48;-19713.00;;;22.03;100.00
54503;BME280;40411;50.090;21.954;2023-06-10T13:03:15;-19705.31;;;21.72;100.00
54503;BME280;40411;50.090;21.954;2023-06-10T13:05:41;-19705.44;;;21.73;100.00
54503;BME280;40411;50.090;21.954;2023-06-10T13:08:08;-19712.38;;;22.01;100.00
54503;BME280;40411;50.090;21.954;2023-06-10T13:10:35;-19696.63;;;21.37;100.00
54503;BME280;40411;50.090;21.954;2023-06-10T13:13:02;-19708.97;;;21.87;100.00